sensor_id;sensor_type;location;lat;lon;timestamp;pressure;altitude;pressure_sealevel;temperature;humidity
53619;BME280;68717;53.040;18.488;2023-07-29T00:00:04;100512.25;;;15.80;100.00
53619;BME280;68717;53.040;18.488;2023-07-29T00:00:17;100502.47;;;15.79;100.00
53619;BME280;68717;53.040;18.488;2023-07-29T00:00:50;100502.28;;;15.80;100.00
53619;BME280;68717;53.040;18.488;2023-07-29T00:01:12;100508.72;;;15.79;100.00
53619;BME280;68717;53.040;18.488;2023-07-29T00:01:25;100508.72;;;15.79;100.00
53619;BME280;68717;53.040;18.488;2023-07-29T00:01:40;100505.19;;;15.79;100.00
53619;BME280;68717;53.040;18.488;2023-07-29T00:01:53;100504.31;;;15.78;100.00
53619;BME280;68717;53.040;18.488;2023-07-29T00:02:06;100510.59;;;15.79;100.00
53619;BME280;68717;53.040;18.488;2023-07-29T00:02:19;100497.22;;;15.77;100.00
53619;BME280;68717;53.040;18.488;2023-07-29T00:02:32;100508.88;;;15.78;100.00
53619;BME280;68717;53.040;18.488;2023-07-29T00:02:45;100498.25;;;15.76;100.00
53619;BME280;68717;53.040;18.488;2023-07-29T00:02:58;100500.09;;;15.76;100.00
53619;BME280;68717;53.040;18.488;2023-07-29T00:03:12;100501.97;;;15.75;100.00
53619;BME280;68717;53.040;18.488;2023-07-29T00:03:24;100504.66;;;15.75;100.00
53619;BME280;68717;53.040;18.488;2023-07-29T00:03:37;100503.84;;;15.75;100.00
53619;BME280;68717;53.040;18.488;2023-07-29T00:03:50;100507.38;;;15.75;100.00
53619;BME280;68717;53.040;18.488;2023-07-29T00:04:03;100505.69;;;15.74;100.00
53619;BME280;68717;53.040;18.488;2023-07-29T00:04:17;100501.13;;;15.75;100.00
53619;BME280;68717;53.040;18.488;2023-07-29T00:04:30;100508.41;;;15.74;100.00
53619;BME280;68717;53.040;18.488;2023-07-29T00:04:42;100504.84;;;15.74;100.00
53619;BME280;68717;53.040;18.488;2023-07-29T00:04:56;100507.53;;;15.74;100.00
53619;BME280;68717;53.040;18.488;2023-07-29T00:05:09;100507.72;;;15.72;100.00
53619;BME280;68717;53.040;18.488;2023-07-29T00:05:21;100508.56;;;15.73;100.00
53619;BME280;68717;53.040;18.488;2023-07-29T00:05:36;100502.31;;;15.72;100.00
53619;BME280;68717;53.040;18.488;2023-07-29T00:05:49;100504.16;;;15.72;100.00
53619;BME280;68717;53.040;18.488;2023-07-29T00:06:01;100510.44;;;15.72;100.00
53619;BME280;68717;53.040;18.488;2023-07-29T00:06:14;100504.16;;;15.72;100.00
53619;BME280;68717;53.040;18.488;2023-07-29T00:06:27;100503.31;;;15.71;100.00
53619;BME280;68717;53.040;18.488;2023-07-29T00:06:40;100507.72;;;15.72;100.00
53619;BME280;68717;53.040;18.488;2023-07-29T00:06:52;100504.16;;;15.72;100.00
53619;BME280;68717;53.040;18.488;2023-07-29T00:07:06;100507.72;;;15.72;100.00
53619;BME280;68717;53.040;18.488;2023-07-29T00:07:19;100504.16;;;15.72;100.00
53619;BME280;68717;53.040;18.488;2023-07-29T00:07:31;100504.16;;;15.72;100.00
53619;BME280;68717;53.040;18.488;2023-07-29T00:07:44;100508.72;;;15.71;100.00
53619;BME280;68717;53.040;18.488;2023-07-29T00:07:56;100508.72;;;15.71;100.00
53619;BME280;68717;53.040;18.488;2023-07-29T00:08:09;100500.63;;;15.71;100.00
53619;BME280;68717;53.040;18.488;2023-07-29T00:08:22;100506.19;;;15.70;100.00
53619;BME280;68717;53.040;18.488;2023-07-29T00:08:34;100510.75;;;15.69;100.00
53619;BME280;68717;53.040;18.488;2023-07-29T00:08:47;100505.34;;;15.69;100.00
53619;BME280;68717;53.040;18.488;2023-07-29T00:08:59;100509.91;;;15.69;100.00
53619;BME280;68717;53.040;18.488;2023-07-29T00:09:13;100508.41;;;15.66;100.00
53619;BME280;68717;53.040;18.488;2023-07-29T00:09:26;100508.25;;;15.68;100.00
53619;BME280;68717;53.040;18.488;2023-07-29T00:09:38;100510.09;;;15.67;100.00
53619;BME280;68717;53.040;18.488;2023-07-29T00:09:51;100509.41;;;15.65;100.00
53619;BME280;68717;53.040;18.488;2023-07-29T00:10:04;100514.81;;;15.65;100.00
53619;BME280;68717;53.040;18.488;2023-07-29T00:10:17;100504.00;;;15.65;100.00
53619;BME280;68717;53.040;18.488;2023-07-29T00:10:31;100507.72;;;15.64;100.00
53619;BME280;68717;53.040;18.488;2023-07-29T00:10:43;100507.72;;;15.64;100.00
53619;BME280;68717;53.040;18.488;2023-07-29T00:10:57;100512.31;;;15.64;100.00
53619;BME280;68717;53.040;18.488;2023-07-29T00:11:10;100507.91;;;15.63;100.00
53619;BME280;68717;53.040;18.488;2023-07-29T00:11:23;100509.75;;;15.62;100.00
53619;BME280;68717;53.040;18.488;2023-07-29T00:11:35;100515.16;;;15.62;100.00
53619;BME280;68717;53.040;18.488;2023-07-29T00:11:48;100516.00;;;15.63;100.00
53619;BME280;68717;53.040;18.488;2023-07-29T00:12:00;100516.00;;;15.63;100.00
53619;BME280;68717;53.040;18.488;2023-07-29T00:12:13;100515.16;;;15.62;100.00
53619;BME280;68717;53.040;18.488;2023-07-29T00:12:25;100515.16;;;15.62;100.00
53619;BME280;68717;53.040;18.488;2023-07-29T00:12:39;100522.25;;;15.63;100.00
53619;BME280;68717;53.040;18.488;2023-07-29T00:12:52;100513.31;;;15.63;100.00
53619;BME280;68717;53.040;18.488;2023-07-29T00:13:05;100516.00;;;15.63;100.00
53619;BME280;68717;53.040;18.488;2023-07-29T00:13:17;100521.41;;;15.63;100.00
53619;BME280;68717;53.040;18.488;2023-07-29T00:13:33;100516.84;;;15.63;100.00
53619;BME280;68717;53.040;18.488;2023-07-29T00:13:46;100522.25;;;15.63;100.00
53619;BME280;68717;53.040;18.488;2023-07-29T00:13:59;100520.56;;;15.62;100.00
53619;BME280;68717;53.040;18.488;2023-07-29T00:14:13;100520.56;;;15.62;100.00
53619;BME280;68717;53.040;18.488;2023-07-29T00:14:26;100518.88;;;15.61;100.00
53619;BME280;68717;53.040;18.488;2023-07-29T00:14:38;100524.28;;;15.61;100.00
53619;BME280;68717;53.040;18.488;2023-07-29T00:14:51;100519.91;;;15.60;100.00
53619;BME280;68717;53.040;18.488;2023-07-29T00:15:04;100528.00;;;15.60;100.00
53619;BME280;68717;53.040;18.488;2023-07-29T00:15:17;100524.47;;;15.59;100.00
53619;BME280;68717;53.040;18.488;2023-07-29T00:15:30;100527.16;;;15.59;100.00
53619;BME280;68717;53.040;18.488;2023-07-29T00:15:43;100523.63;;;15.59;100.00
53619;BME280;68717;53.040;18.488;2023-07-29T00:15:56;100519.22;;;15.58;100.00
53619;BME280;68717;53.040;18.488;2023-07-29T00:16:09;100530.03;;;15.58;100.00
53619;BME280;68717;53.040;18.488;2023-07-29T00:16:22;100522.97;;;15.57;100.00
53619;BME280;68717;53.040;18.488;2023-07-29T00:16:35;100523.94;;;15.56;100.00
53619;BME280;68717;53.040;18.488;2023-07-29T00:16:48;100525.81;;;15.55;100.00
53619;BME280;68717;53.040;18.488;2023-07-29T00:17:01;100518.69;;;15.54;100.00
53619;BME280;68717;53.040;18.488;2023-07-29T00:17:13;100527.69;;;15.55;100.00
53619;BME280;68717;53.040;18.488;2023-07-29T00:17:26;100519.72;;;15.53;100.00
53619;BME280;68717;53.040;18.488;2023-07-29T00:17:39;100526.97;;;15.53;100.00
53619;BME280;68717;53.040;18.488;2023-07-29T00:17:53;100522.56;;;15.52;100.00
53619;BME280;68717;53.040;18.488;2023-07-29T00:18:05;100526.97;;;15.53;100.00
53619;BME280;68717;53.040;18.488;2023-07-29T00:18:18;100524.44;;;15.51;100.00
53619;BME280;68717;53.040;18.488;2023-07-29T00:18:31;100530.66;;;15.52;100.00
53619;BME280;68717;53.040;18.488;2023-07-29T00:18:44;100520.91;;;15.51;100.00
53619;BME280;68717;53.040;18.488;2023-07-29T00:18:57;100518.19;;;15.51;100.00
53619;BME280;68717;53.040;18.488;2023-07-29T00:19:09;100518.19;;;15.51;100.00
53619;BME280;68717;53.040;18.488;2023-07-29T00:19:22;100528.16;;;15.50;100.00
53619;BME280;68717;53.040;18.488;2023-07-29T00:19:36;100522.75;;;15.50;100.00
53619;BME280;68717;53.040;18.488;2023-07-29T00:19:49;100528.16;;;15.50;100.00
53619;BME280;68717;53.040;18.488;2023-07-29T00:20:02;100525.63;;;15.49;100.00
53619;BME280;68717;53.040;18.488;2023-07-29T00:20:18;100523.91;;;15.48;100.00
53619;BME280;68717;53.040;18.488;2023-07-29T00:20:31;100519.38;;;15.48;100.00
53619;BME280;68717;53.040;18.488;2023-07-29T00:20:45;100520.38;;;15.47;100.00
53619;BME280;68717;53.040;18.488;2023-07-29T00:20:57;100522.25;;;15.47;100.00
53619;BME280;68717;53.040;18.488;2023-07-29T00:21:10;100529.31;;;15.48;100.00
53619;BME280;68717;53.040;18.488;2023-07-29T00:21:23;100526.81;;;15.46;100.00
53619;BME280;68717;53.040;18.488;2023-07-29T00:21:35;100523.25;;;15.46;100.00
53619;BME280;68717;53.040;18.488;2023-07-29T00:21:48;100526.81;;;15.46;100.00
53619;BME280;68717;53.040;18.488;2023-07-29T00:22:02;100518.88;;;15.45;100.00
53619;BME280;68717;53.040;18.488;2023-07-29T00:22:15;100518.88;;;15.45;100.00
53619;BME280;68717;53.040;18.488;2023-07-29T00:22:27;100524.28;;;15.45;100.00
53619;BME280;68717;53.040;18.488;2023-07-29T00:22:40;100528.66;;;15.46;100.00
53619;BME280;68717;53.040;18.488;2023-07-29T00:22:53;100525.94;;;15.46;100.00
53619;BME280;68717;53.040;18.488;2023-07-29T00:23:06;100523.25;;;15.46;100.00
53619;BME280;68717;53.040;18.488;2023-07-29T00:23:19;100525.09;;;15.45;100.00
53619;BME280;68717;53.040;18.488;2023-07-29T00:23:33;100527.97;;;15.44;100.00
53619;BME280;68717;53.040;18.488;2023-07-29T00:23:46;100522.56;;;15.44;100.00
53619;BME280;68717;53.040;18.488;2023-07-29T00:23:59;100525.28;;;15.44;100.00
53619;BME280;68717;53.040;18.488;2023-07-29T00:24:13;100531.69;;;15.43;100.00
53619;BME280;68717;53.040;18.488;2023-07-29T00:24:25;100522.75;;;15.42;100.00
53619;BME280;68717;53.040;18.488;2023-07-29T00:24:39;100527.31;;;15.42;100.00
53619;BME280;68717;53.040;18.488;2023-07-29T00:24:52;100523.75;;;15.41;100.00
53619;BME280;68717;53.040;18.488;2023-07-29T00:25:07;100529.16;;;15.41;100.00
53619;BME280;68717;53.040;18.488;2023-07-29T00:25:20;100530.03;;;15.42;100.00
53619;BME280;68717;53.040;18.488;2023-07-29T00:25:33;100531.03;;;15.40;100.00
53619;BME280;68717;53.040;18.488;2023-07-29T00:25:46;100531.03;;;15.40;100.00
53619;BME280;68717;53.040;18.488;2023-07-29T00:25:59;100527.50;;;15.40;100.00
53619;BME280;68717;53.040;18.488;2023-07-29T00:26:12;100526.66;;;15.39;100.00
53619;BME280;68717;53.040;18.488;2023-07-29T00:26:25;100530.34;;;15.38;100.00
53619;BME280;68717;53.040;18.488;2023-07-29T00:26:41;100532.06;;;15.39;100.00
53619;BME280;68717;53.040;18.488;2023-07-29T00:26:53;100527.66;;;15.38;100.00
53619;BME280;68717;53.040;18.488;2023-07-29T00:27:06;100527.66;;;15.38;100.00
53619;BME280;68717;53.040;18.488;2023-07-29T00:27:19;100526.81;;;15.38;100.00
53619;BME280;68717;53.040;18.488;2023-07-29T00:27:32;100529.50;;;15.38;100.00
53619;BME280;68717;53.040;18.488;2023-07-29T00:27:44;100527.66;;;15.38;100.00
53619;BME280;68717;53.040;18.488;2023-07-29T00:27:58;100532.22;;;15.38;100.00
53619;BME280;68717;53.040;18.488;2023-07-29T00:28:11;100533.03;;;15.38;100.00
53619;BME280;68717;53.040;18.488;2023-07-29T00:28:24;100533.03;;;15.38;100.00
53619;BME280;68717;53.040;18.488;2023-07-29T00:28:37;100530.34;;;15.38;100.00
53619;BME280;68717;53.040;18.488;2023-07-29T00:28:49;100522.25;;;15.38;100.00
53619;BME280;68717;53.040;18.488;2023-07-29T00:29:02;100530.34;;;15.38;100.00
53619;BME280;68717;53.040;18.488;2023-07-29T00:29:15;100530.34;;;15.38;100.00
53619;BME280;68717;53.040;18.488;2023-07-29T00:29:28;100524.09;;;15.38;100.00
53619;BME280;68717;53.040;18.488;2023-07-29T00:29:41;100524.94;;;15.38;100.00
53619;BME280;68717;53.040;18.488;2023-07-29T00:29:53;100526.66;;;15.39;100.00
53619;BME280;68717;53.040;18.488;2023-07-29T00:30:07;100533.03;;;15.38;100.00
53619;BME280;68717;53.040;18.488;2023-07-29T00:30:20;100531.19;;;15.39;100.00
53619;BME280;68717;53.040;18.488;2023-07-29T00:30:33;100522.25;;;15.38;100.00
53619;BME280;68717;53.040;18.488;2023-07-29T00:30:45;100527.66;;;15.38;100.00
53619;BME280;68717;53.040;18.488;2023-07-29T00:30:58;100532.06;;;15.39;100.00
53619;BME280;68717;53.040;18.488;2023-07-29T00:31:11;100527.66;;;15.38;100.00
53619;BME280;68717;53.040;18.488;2023-07-29T00:31:25;100520.38;;;15.39;100.00
53619;BME280;68717;53.040;18.488;2023-07-29T00:31:37;100524.94;;;15.38;100.00
53619;BME280;68717;53.040;18.488;2023-07-29T00:31:50;100530.34;;;15.38;100.00
53619;BME280;68717;53.040;18.488;2023-07-29T00:32:03;100529.50;;;15.38;100.00
53619;BME280;68717;53.040;18.488;2023-07-29T00:32:16;100523.28;;;15.37;100.00
53619;BME280;68717;53.040;18.488;2023-07-29T00:32:29;100522.41;;;15.37;100.00
53619;BME280;68717;53.040;18.488;2023-07-29T00:32:42;100527.81;;;15.37;100.00
53619;BME280;68717;53.040;18.488;2023-07-29T00:32:55;100526.13;;;15.36;100.00
53619;BME280;68717;53.040;18.488;2023-07-29T00:33:08;100526.13;;;15.36;100.00
53619;BME280;68717;53.040;18.488;2023-07-29T00:33:21;100530.69;;;15.35;100.00
53619;BME280;68717;53.040;18.488;2023-07-29T00:33:34;100525.28;;;15.35;100.00
53619;BME280;68717;53.040;18.488;2023-07-29T00:33:46;100529.00;;;15.34;100.00
53619;BME280;68717;53.040;18.488;2023-07-29T00:33:59;100534.41;;;15.34;100.00
53619;BME280;68717;53.040;18.488;2023-07-29T00:34:12;100525.44;;;15.34;100.00
53619;BME280;68717;53.040;18.488;2023-07-29T00:34:29;100529.00;;;15.34;100.00
53619;BME280;68717;53.040;18.488;2023-07-29T00:34:43;100534.59;;;15.33;100.00
53619;BME280;68717;53.040;18.488;2023-07-29T00:34:56;100524.78;;;15.32;100.00
53619;BME280;68717;53.040;18.488;2023-07-29T00:35:09;100531.00;;;15.32;100.00
53619;BME280;68717;53.040;18.488;2023-07-29T00:35:22;100533.03;;;15.30;100.00
53619;BME280;68717;53.040;18.488;2023-07-29T00:35:34;100535.75;;;15.30;100.00
53619;BME280;68717;53.040;18.488;2023-07-29T00:35:49;100530.34;;;15.30;100.00
53619;BME280;68717;53.040;18.488;2023-07-29T00:36:01;100531.38;;;15.29;100.00
53619;BME280;68717;53.040;18.488;2023-07-29T00:36:15;100530.53;;;15.29;100.00
53619;BME280;68717;53.040;18.488;2023-07-29T00:36:28;100525.97;;;15.29;100.00
53619;BME280;68717;53.040;18.488;2023-07-29T00:36:42;100524.25;;;15.28;100.00
53619;BME280;68717;53.040;18.488;2023-07-29T00:36:54;100525.13;;;15.29;100.00
53619;BME280;68717;53.040;18.488;2023-07-29T00:37:07;100530.53;;;15.29;100.00
53619;BME280;68717;53.040;18.488;2023-07-29T00:37:19;100527.16;;;15.27;100.00
53619;BME280;68717;53.040;18.488;2023-07-29T00:37:32;100532.56;;;15.27;100.00
53619;BME280;68717;53.040;18.488;2023-07-29T00:37:45;100527.16;;;15.27;100.00
53619;BME280;68717;53.040;18.488;2023-07-29T00:37:57;100531.69;;;15.26;100.00
53619;BME280;68717;53.040;18.488;2023-07-29T00:38:10;100528.97;;;15.26;100.00
53619;BME280;68717;53.040;18.488;2023-07-29T00:38:22;100532.56;;;15.27;100.00
53619;BME280;68717;53.040;18.488;2023-07-29T00:38:36;100532.56;;;15.27;100.00
53619;BME280;68717;53.040;18.488;2023-07-29T00:38:48;100534.38;;;15.26;100.00
53619;BME280;68717;53.040;18.488;2023-07-29T00:39:01;100531.69;;;15.26;100.00
53619;BME280;68717;53.040;18.488;2023-07-29T00:39:14;100534.22;;;15.28;100.00
53619;BME280;68717;53.040;18.488;2023-07-29T00:39:26;100530.84;;;15.26;100.00
53619;BME280;68717;53.040;18.488;2023-07-29T00:39:39;100527.31;;;15.25;100.00
53619;BME280;68717;53.040;18.488;2023-07-29T00:39:52;100530.00;;;15.25;100.00
53619;BME280;68717;53.040;18.488;2023-07-29T00:40:12;100528.34;;;15.24;100.00
53619;BME280;68717;53.040;18.488;2023-07-29T00:40:27;100533.75;;;15.24;100.00
53619;BME280;68717;53.040;18.488;2023-07-29T00:40:41;100533.75;;;15.24;100.00
53619;BME280;68717;53.040;18.488;2023-07-29T00:40:55;100532.88;;;15.24;100.00
53619;BME280;68717;53.040;18.488;2023-07-29T00:41:08;100531.03;;;15.24;100.00
53619;BME280;68717;53.040;18.488;2023-07-29T00:41:25;100529.34;;;15.23;100.00
53619;BME280;68717;53.040;18.488;2023-07-29T00:41:38;100530.34;;;15.22;100.00
53619;BME280;68717;53.040;18.488;2023-07-29T00:41:51;100533.91;;;15.23;100.00
53619;BME280;68717;53.040;18.488;2023-07-29T00:42:04;100535.75;;;15.22;100.00
53619;BME280;68717;53.040;18.488;2023-07-29T00:42:18;100532.19;;;15.22;100.00
53619;BME280;68717;53.040;18.488;2023-07-29T00:42:31;100531.34;;;15.21;100.00
53619;BME280;68717;53.040;18.488;2023-07-29T00:42:44;100531.34;;;15.21;100.00
53619;BME280;68717;53.040;18.488;2023-07-29T00:42:56;100533.22;;;15.20;100.00
53619;BME280;68717;53.040;18.488;2023-07-29T00:43:09;100534.06;;;15.21;100.00
53619;BME280;68717;53.040;18.488;2023-07-29T00:43:22;100534.22;;;15.19;100.00
53619;BME280;68717;53.040;18.488;2023-07-29T00:43:34;100532.38;;;15.20;100.00
53619;BME280;68717;53.040;18.488;2023-07-29T00:43:48;100533.38;;;15.19;100.00
53619;BME280;68717;53.040;18.488;2023-07-29T00:44:01;100536.91;;;15.19;100.00
53619;BME280;68717;53.040;18.488;2023-07-29T00:44:13;100533.38;;;15.19;100.00
53619;BME280;68717;53.040;18.488;2023-07-29T00:44:26;100527.13;;;15.18;100.00
53619;BME280;68717;53.040;18.488;2023-07-29T00:44:38;100536.06;;;15.19;100.00
53619;BME280;68717;53.040;18.488;2023-07-29T00:44:51;100536.06;;;15.19;100.00
53619;BME280;68717;53.040;18.488;2023-07-29T00:45:04;100536.06;;;15.19;100.00
53619;BME280;68717;53.040;18.488;2023-07-29T00:45:20;100531.69;;;15.18;100.00
53619;BME280;68717;53.040;18.488;2023-07-29T00:45:33;100534.41;;;15.18;100.00
53619;BME280;68717;53.040;18.488;2023-07-29T00:45:46;100534.41;;;15.18;100.00
53619;BME280;68717;53.040;18.488;2023-07-29T00:46:00;100532.69;;;15.17;100.00
53619;BME280;68717;53.040;18.488;2023-07-29T00:46:13;100536.44;;;15.16;100.00
53619;BME280;68717;53.040;18.488;2023-07-29T00:46:26;100536.44;;;15.16;100.00
53619;BME280;68717;53.040;18.488;2023-07-29T00:46:40;100532.88;;;15.15;100.00
53619;BME280;68717;53.040;18.488;2023-07-29T00:46:54;100535.59;;;15.15;100.00
53619;BME280;68717;53.040;18.488;2023-07-29T00:47:07;100530.34;;;15.14;100.00
53619;BME280;68717;53.040;18.488;2023-07-29T00:47:22;100524.94;;;15.14;100.00
53619;BME280;68717;53.040;18.488;2023-07-29T00:47:36;100526.81;;;15.13;100.00
53619;BME280;68717;53.040;18.488;2023-07-29T00:47:49;100529.50;;;15.13;100.00
53619;BME280;68717;53.040;18.488;2023-07-29T00:48:03;100528.66;;;15.13;100.00
53619;BME280;68717;53.040;18.488;2023-07-29T00:48:16;100537.63;;;15.13;100.00
53619;BME280;68717;53.040;18.488;2023-07-29T00:48:29;100539.44;;;15.13;100.00
53619;BME280;68717;53.040;18.488;2023-07-29T00:48:42;100539.44;;;15.13;100.00
53619;BME280;68717;53.040;18.488;2023-07-29T00:48:55;100534.03;;;15.13;100.00
53619;BME280;68717;53.040;18.488;2023-07-29T00:49:08;100534.91;;;15.13;100.00
53619;BME280;68717;53.040;18.488;2023-07-29T00:49:21;100530.50;;;15.12;100.00
53619;BME280;68717;53.040;18.488;2023-07-29T00:49:34;100535.91;;;15.12;100.00
53619;BME280;68717;53.040;18.488;2023-07-29T00:49:47;100530.50;;;15.12;100.00
53619;BME280;68717;53.040;18.488;2023-07-29T00:50:00;100531.34;;;15.13;100.00
53619;BME280;68717;53.040;18.488;2023-07-29T00:50:14;100531.34;;;15.13;100.00
53619;BME280;68717;53.040;18.488;2023-07-29T00:50:27;100543.16;;;15.12;100.00
53619;BME280;68717;53.040;18.488;2023-07-29T00:50:41;100528.66;;;15.13;100.00
53619;BME280;68717;53.040;18.488;2023-07-29T00:50:55;100535.06;;;15.12;100.00
53619;BME280;68717;53.040;18.488;2023-07-29T00:51:08;100530.66;;;15.11;100.00
53619;BME280;68717;53.040;18.488;2023-07-29T00:51:21;100538.75;;;15.11;100.00
53619;BME280;68717;53.040;18.488;2023-07-29T00:51:34;100538.75;;;15.11;100.00
53619;BME280;68717;53.040;18.488;2023-07-29T00:51:48;100537.09;;;15.10;100.00
53619;BME280;68717;53.040;18.488;2023-07-29T00:52:00;100530.00;;;15.09;100.00
53619;BME280;68717;53.040;18.488;2023-07-29T00:52:13;100540.78;;;15.09;100.00
53619;BME280;68717;53.040;18.488;2023-07-29T00:52:26;100535.56;;;15.07;100.00
53619;BME280;68717;53.040;18.488;2023-07-29T00:52:38;100528.31;;;15.08;100.00
53619;BME280;68717;53.040;18.488;2023-07-29T00:52:51;100528.31;;;15.08;100.00
53619;BME280;68717;53.040;18.488;2023-07-29T00:53:04;100532.88;;;15.07;100.00
53619;BME280;68717;53.040;18.488;2023-07-29T00:53:16;100534.75;;;15.07;100.00
53619;BME280;68717;53.040;18.488;2023-07-29T00:53:30;100537.44;;;15.07;100.00
53619;BME280;68717;53.040;18.488;2023-07-29T00:53:43;100536.56;;;15.06;100.00
53619;BME280;68717;53.040;18.488;2023-07-29T00:53:56;100534.91;;;15.05;100.00
53619;BME280;68717;53.040;18.488;2023-07-29T00:54:09;100533.03;;;15.06;100.00
53619;BME280;68717;53.040;18.488;2023-07-29T00:54:22;100541.13;;;15.06;100.00
53619;BME280;68717;53.040;18.488;2023-07-29T00:54:34;100543.00;;;15.05;100.00
53619;BME280;68717;53.040;18.488;2023-07-29T00:54:47;100535.88;;;15.04;100.00
53619;BME280;68717;53.040;18.488;2023-07-29T00:54:59;100539.47;;;15.05;100.00
53619;BME280;68717;53.040;18.488;2023-07-29T00:55:12;100537.75;;;15.04;100.00
53619;BME280;68717;53.040;18.488;2023-07-29T00:55:26;100532.34;;;15.04;100.00
53619;BME280;68717;53.040;18.488;2023-07-29T00:55:40;100533.38;;;15.03;100.00
53619;BME280;68717;53.040;18.488;2023-07-29T00:55:54;100535.22;;;15.02;100.00
53619;BME280;68717;53.040;18.488;2023-07-29T00:56:07;100537.06;;;15.02;100.00
53619;BME280;68717;53.040;18.488;2023-07-29T00:56:20;100536.25;;;15.01;100.00
53619;BME280;68717;53.040;18.488;2023-07-29T00:56:32;100543.50;;;15.01;100.00
53619;BME280;68717;53.040;18.488;2023-07-29T00:56:46;100534.72;;;14.98;100.00
53619;BME280;68717;53.040;18.488;2023-07-29T00:56:58;100540.13;;;14.98;100.00
53619;BME280;68717;53.040;18.488;2023-07-29T00:57:12;100535.56;;;14.99;100.00
53619;BME280;68717;53.040;18.488;2023-07-29T00:57:26;100534.53;;;15.00;100.00
53619;BME280;68717;53.040;18.488;2023-07-29T00:57:41;100538.09;;;15.01;100.00
53619;BME280;68717;53.040;18.488;2023-07-29T00:58:00;100536.41;;;14.99;100.00
53619;BME280;68717;53.040;18.488;2023-07-29T00:58:13;100534.53;;;15.00;100.00
53619;BME280;68717;53.040;18.488;2023-07-29T00:58:26;100535.56;;;14.99;100.00
53619;BME280;68717;53.040;18.488;2023-07-29T00:58:39;100534.72;;;14.98;100.00
53619;BME280;68717;53.040;18.488;2023-07-29T00:58:52;100534.72;;;14.98;100.00
53619;BME280;68717;53.040;18.488;2023-07-29T00:59:11;100542.81;;;14.98;100.00
53619;BME280;68717;53.040;18.488;2023-07-29T00:59:24;100533.88;;;14.98;100.00
53619;BME280;68717;53.040;18.488;2023-07-29T00:59:38;100540.13;;;14.98;100.00
53619;BME280;68717;53.040;18.488;2023-07-29T00:59:50;100535.72;;;14.97;100.00
53619;BME280;68717;53.040;18.488;2023-07-29T01:00:05;100533.00;;;14.97;100.00
53619;BME280;68717;53.040;18.488;2023-07-29T01:00:18;100535.72;;;14.97;100.00
53619;BME280;68717;53.040;18.488;2023-07-29T01:00:31;100535.91;;;14.96;100.00
53619;BME280;68717;53.040;18.488;2023-07-29T01:00:43;100538.41;;;14.97;100.00
53619;BME280;68717;53.040;18.488;2023-07-29T01:00:57;100532.19;;;14.97;100.00
53619;BME280;68717;53.040;18.488;2023-07-29T01:01:09;100536.75;;;14.96;100.00
53619;BME280;68717;53.040;18.488;2023-07-29T01:01:22;100535.91;;;14.96;100.00
53619;BME280;68717;53.040;18.488;2023-07-29T01:01:35;100535.91;;;14.96;100.00
53619;BME280;68717;53.040;18.488;2023-07-29T01:01:48;100534.19;;;14.95;100.00
53619;BME280;68717;53.040;18.488;2023-07-29T01:02:01;100536.75;;;14.96;100.00
53619;BME280;68717;53.040;18.488;2023-07-29T01:02:15;100530.66;;;14.94;100.00
53619;BME280;68717;53.040;18.488;2023-07-29T01:02:28;100531.50;;;14.95;100.00
53619;BME280;68717;53.040;18.488;2023-07-29T01:02:42;100536.06;;;14.94;100.00
53619;BME280;68717;53.040;18.488;2023-07-29T01:02:56;100536.06;;;14.94;100.00
53619;BME280;68717;53.040;18.488;2023-07-29T01:03:09;100538.75;;;14.94;100.00
53619;BME280;68717;53.040;18.488;2023-07-29T01:03:22;100530.66;;;14.94;100.00
53619;BME280;68717;53.040;18.488;2023-07-29T01:03:35;100541.47;;;14.94;100.00
53619;BME280;68717;53.040;18.488;2023-07-29T01:03:48;100538.75;;;14.94;100.00
53619;BME280;68717;53.040;18.488;2023-07-29T01:04:01;100532.53;;;14.94;100.00
53619;BME280;68717;53.040;18.488;2023-07-29T01:04:14;100531.66;;;14.93;100.00
53619;BME280;68717;53.040;18.488;2023-07-29T01:04:27;100528.13;;;14.93;100.00
53619;BME280;68717;53.040;18.488;2023-07-29T01:04:40;100531.66;;;14.93;100.00
53619;BME280;68717;53.040;18.488;2023-07-29T01:04:53;100534.34;;;14.93;100.00
53619;BME280;68717;53.040;18.488;2023-07-29T01:05:07;100535.38;;;14.92;100.00
53619;BME280;68717;53.040;18.488;2023-07-29T01:05:20;100535.38;;;14.92;100.00
53619;BME280;68717;53.040;18.488;2023-07-29T01:05:38;100539.06;;;14.91;100.00
53619;BME280;68717;53.040;18.488;2023-07-29T01:06:01;100532.84;;;14.91;100.00
53619;BME280;68717;53.040;18.488;2023-07-29T01:06:24;100540.09;;;14.90;100.00
53619;BME280;68717;53.040;18.488;2023-07-29T01:06:48;100534.03;;;14.88;100.00
53619;BME280;68717;53.040;18.488;2023-07-29T01:07:08;100538.59;;;14.88;100.00
53619;BME280;68717;53.040;18.488;2023-07-29T01:07:32;100537.75;;;14.87;100.00
53619;BME280;68717;53.040;18.488;2023-07-29T01:07:49;100540.44;;;14.87;100.00
53619;BME280;68717;53.040;18.488;2023-07-29T01:08:10;100540.44;;;14.87;100.00
53619;BME280;68717;53.040;18.488;2023-07-29T01:08:35;100543.97;;;14.88;100.00
53619;BME280;68717;53.040;18.488;2023-07-29T01:08:54;100537.75;;;14.87;100.00